Everglades Natl Park, Florida
Current Conditions -  °F | °C
As of 2:58 PM on Saturday 25 Oct 2014 (Local Time) from KHST Reporting Station
Few Clouds Few Clouds  
Wind Chill: 83°   Ceiling: Unl
Heat Index: 83°   Visibility: 10mi
Dew Point: 61°   Wind: 8mph
Humidity: 48%   Direction: 20°NNE
Pressure: 29.88"   Gusts: NA
Location:  25.45°N, 80.88°W
Report Text: KHST 251858Z AUTO 02007KT 330V040 10SM FEW050 28/16 A2988 RMK AO2 SLP121 T02810162
Loading
Personal Weather Stations






























Interactive Weather Map
Tropical Storm Tracking
New forecast layout! Learn more

10-Day Weather Forecast

Advertisements
Track Severe Weather on mobile